Time,TemperatureF,DewpointF,PressureIn,WindDirection,WindDirectionDegrees,WindSpeedMPH,WindSpeedGustMPH,Humidity,HourlyPrecipIn,Conditions,Clouds,dailyrainin,SolarRadiationWatts/m^2,SoftwareType,DateUTC
2013-02-12 00:03:00,44.6,18.0,30.54,NNW,331,0.0,-999.0,35,-99.99,,,0.00,0,weatherlink.com 1.10,2013-02-12 08:03:00,
2013-02-12 00:18:00,45.0,17.0,30.55,NNW,331,0.0,-999.0,33,-99.99,,,0.00,0,weatherlink.com 1.10,2013-02-12 08:18:00,
2013-02-12 00:33:00,44.5,17.0,30.55,NNW,331,0.0,-999.0,33,-99.99,,,0.00,0,weatherlink.com 1.10,2013-02-12 08:33:00,
2013-02-12 00:48:00,44.6,18.0,30.55,NNW,331,0.0,-999.0,35,-99.99,,,0.00,0,weatherlink.com 1.10,2013-02-12 08:48:00,
2013-02-12 01:03:00,44.0,17.0,30.55,NNW,331,0.0,-999.0,34,-99.99,,,0.00,0,weatherlink.com 1.10,2013-02-12 09:03:00,
2013-02-12 01:18:00,44.1,18.0,30.55,NNW,331,0.0,-999.0,35,-99.99,,,0.00,0,weatherlink.com 1.10,2013-02-12 09:18:00,
2013-02-12 01:33:00,44.5,17.0,30.55,NNW,331,0.0,-999.0,33,-99.99,,,0.00,0,weatherlink.com 1.10,2013-02-12 09:33:00,
2013-02-12 01:48:00,43.8,19.0,30.55,NNW,331,0.0,-999.0,37,-99.99,,,0.00,0,weatherlink.com 1.10,2013-02-12 09:48:00,
2013-02-12 02:03:00,42.7,21.0,30.55,NNW,331,0.0,-999.0,42,-99.99,,,0.00,0,weatherlink.com 1.10,2013-02-12 10:03:00,
2013-02-12 02:18:00,41.8,21.0,30.55,NNW,331,0.0,-999.0,44,-99.99,,,0.00,0,weatherlink.com 1.10,2013-02-12 10:18:00,
2013-02-12 02:33:00,41.9,20.0,30.55,NNW,331,0.0,-999.0,42,-99.99,,,0.00,0,weatherlink.com 1.10,2013-02-12 10:33:00,
2013-02-12 02:48:00,41.9,19.0,30.55,NNW,331,0.0,-999.0,40,-99.99,,,0.00,0,weatherlink.com 1.10,2013-02-12 10:48:00,
2013-02-12 03:03:00,41.6,19.0,30.55,NNW,331,0.0,-999.0,41,-99.99,,,0.00,0,weatherlink.com 1.10,2013-02-12 11:03:00,
2013-02-12 03:18:00,40.8,19.0,30.55,NNW,331,0.0,-999.0,41,-99.99,,,0.00,0,weatherlink.com 1.10,2013-02-12 11:18:00,
2013-02-12 03:33:00,40.8,20.0,30.55,NNW,331,0.0,-999.0,43,-99.99,,,0.00,0,weatherlink.com 1.10,2013-02-12 11:33:00,
2013-02-12 03:48:00,40.4,20.0,30.55,NNW,331,0.0,-999.0,45,-99.99,,,0.00,0,weatherlink.com 1.10,2013-02-12 11:48:00,
2013-02-12 04:03:00,40.3,21.0,30.56,NNW,331,0.0,-999.0,46,-99.99,,,0.00,0,weatherlink.com 1.10,2013-02-12 12:03:00,
2013-02-12 04:18:00,40.3,21.0,30.57,NNW,331,0.0,-999.0,46,-99.99,,,0.00,0,weatherlink.com 1.10,2013-02-12 12:18:00,
2013-02-12 04:33:00,40.7,20.0,30.57,NNW,331,0.0,-999.0,43,-99.99,,,0.00,0,weatherlink.com 1.10,2013-02-12 12:33:00,
2013-02-12 04:48:00,41.2,18.0,30.57,NNW,331,0.0,-999.0,40,-99.99,,,0.00,0,weatherlink.com 1.10,2013-02-12 12:48:00,
2013-02-12 05:03:00,41.2,18.0,30.58,NNW,331,0.0,-999.0,40,-99.99,,,0.00,0,weatherlink.com 1.10,2013-02-12 13:03:00,
2013-02-12 05:18:00,41.3,18.0,30.58,NNW,331,0.0,-999.0,40,-99.99,,,0.00,0,weatherlink.com 1.10,2013-02-12 13:18:00,
2013-02-12 05:33:00,41.6,20.0,30.59,NNW,331,0.0,-999.0,42,-99.99,,,0.00,0,weatherlink.com 1.10,2013-02-12 13:33:00,
2013-02-12 05:48:00,41.5,19.0,30.59,NNW,331,0.0,-999.0,40,-99.99,,,0.00,0,weatherlink.com 1.10,2013-02-12 13:48:00,
2013-02-12 06:03:00,43.1,18.0,30.60,NNW,331,0.0,-999.0,37,-99.99,,,0.00,0,weatherlink.com 1.10,2013-02-12 14:03:00,
2013-02-12 06:19:00,42.7,20.0,30.60,NNW,331,0.0,-999.0,41,-99.99,,,0.00,0,weatherlink.com 1.10,2013-02-12 14:19:00,
2013-02-12 06:34:00,41.6,20.0,30.61,NNW,331,0.0,-999.0,43,-99.99,,,0.00,7,weatherlink.com 1.10,2013-02-12 14:34:00,
2013-02-12 06:49:00,40.7,21.0,30.62,NNW,331,0.0,-999.0,45,-99.99,,,0.00,16,weatherlink.com 1.10,2013-02-12 14:49:00,
2013-02-12 07:04:00,41.2,21.0,30.63,NNW,331,0.0,-999.0,44,-99.99,,,0.00,44,weatherlink.com 1.10,2013-02-12 15:04:00,
2013-02-12 07:19:00,42.6,23.0,30.64,NNW,331,0.0,-999.0,46,-99.99,,,0.00,88,weatherlink.com 1.10,2013-02-12 15:19:00,
2013-02-12 07:34:00,42.9,23.0,30.64,NNW,331,4.0,-999.0,45,-99.99,,,0.00,141,weatherlink.com 1.10,2013-02-12 15:34:00,
2013-02-12 07:49:00,43.6,22.0,30.64,NNW,331,1.0,-999.0,43,-99.99,,,0.00,200,weatherlink.com 1.10,2013-02-12 15:49:00,
2013-02-12 08:04:00,45.1,24.0,30.64,NNW,331,0.0,-999.0,43,-99.99,,,0.00,260,weatherlink.com 1.10,2013-02-12 16:04:00,
2013-02-12 08:19:00,47.1,24.0,30.64,NNW,330,0.0,-999.0,40,-99.99,,,0.00,306,weatherlink.com 1.10,2013-02-12 16:19:00,
2013-02-12 08:34:00,49.1,24.0,30.64,NNW,331,0.0,-999.0,37,-99.99,,,0.00,355,weatherlink.com 1.10,2013-02-12 16:34:00,
2013-02-12 08:49:00,51.4,23.0,30.64,NNW,331,0.0,-999.0,33,-99.99,,,0.00,401,weatherlink.com 1.10,2013-02-12 16:49:00,
2013-02-12 09:04:00,53.8,25.0,30.65,NNW,330,0.0,-999.0,33,-99.99,,,0.00,439,weatherlink.com 1.10,2013-02-12 17:04:00,
2013-02-12 09:19:00,56.0,26.0,30.65,NNW,330,0.0,-999.0,31,-99.99,,,0.00,480,weatherlink.com 1.10,2013-02-12 17:19:00,
2013-02-12 09:34:00,57.9,22.0,30.65,NNW,331,0.0,-999.0,25,-99.99,,,0.00,520,weatherlink.com 1.10,2013-02-12 17:34:00,
2013-02-12 09:49:00,59.4,18.0,30.64,NNW,331,0.0,-999.0,20,-99.99,,,0.00,550,weatherlink.com 1.10,2013-02-12 17:49:00,
2013-02-12 10:05:00,60.8,20.0,30.64,NNW,331,0.0,-999.0,21,-99.99,,,0.00,584,weatherlink.com 1.10,2013-02-12 18:05:00,
2013-02-12 10:20:00,61.7,21.0,30.64,NNW,330,0.0,-999.0,21,-99.99,,,0.00,608,weatherlink.com 1.10,2013-02-12 18:20:00,
2013-02-12 10:35:00,62.3,22.0,30.64,NNW,330,0.0,-999.0,21,-99.99,,,0.00,631,weatherlink.com 1.10,2013-02-12 18:35:00,
2013-02-12 10:50:00,63.2,22.0,30.63,NNW,331,0.0,-999.0,21,-99.99,,,0.00,649,weatherlink.com 1.10,2013-02-12 18:50:00,
2013-02-12 11:05:00,63.4,20.0,30.62,NNW,331,0.0,-999.0,19,-99.99,,,0.00,664,weatherlink.com 1.10,2013-02-12 19:05:00,
2013-02-12 11:20:00,63.2,19.0,30.62,NNW,331,0.0,-999.0,18,-99.99,,,0.00,675,weatherlink.com 1.10,2013-02-12 19:20:00,
2013-02-12 11:35:00,63.9,21.0,30.61,NNW,331,0.0,-999.0,19,-99.99,,,0.00,684,weatherlink.com 1.10,2013-02-12 19:35:00,
2013-02-12 11:50:00,64.4,21.0,30.60,NNW,331,0.0,-999.0,19,-99.99,,,0.00,687,weatherlink.com 1.10,2013-02-12 19:50:00,
2013-02-12 12:05:00,65.2,23.0,30.59,NNW,329,0.0,-999.0,20,-99.99,,,0.00,686,weatherlink.com 1.10,2013-02-12 20:05:00,
2013-02-12 12:20:00,65.0,20.0,30.59,NNW,329,1.0,-999.0,18,-99.99,,,0.00,684,weatherlink.com 1.10,2013-02-12 20:20:00,
2013-02-12 12:35:00,65.6,21.0,30.58,NW,323,0.0,-999.0,18,-99.99,,,0.00,677,weatherlink.com 1.10,2013-02-12 20:35:00,
2013-02-12 12:50:00,66.4,21.0,30.56,NNW,333,0.0,-999.0,18,-99.99,,,0.00,661,weatherlink.com 1.10,2013-02-12 20:50:00,
2013-02-12 13:05:00,66.8,19.0,30.55,NNW,329,6.0,-999.0,16,-99.99,,,0.00,649,weatherlink.com 1.10,2013-02-12 21:05:00,
2013-02-12 13:20:00,65.9,20.0,30.55,NW,321,0.0,-999.0,17,-99.99,,,0.00,626,weatherlink.com 1.10,2013-02-12 21:20:00,
2013-02-12 13:35:00,67.3,21.0,30.54,NW,320,4.0,-999.0,17,-99.99,,,0.00,603,weatherlink.com 1.10,2013-02-12 21:35:00,
2013-02-12 13:50:00,67.5,20.0,30.54,NW,320,1.0,-999.0,16,-99.99,,,0.00,577,weatherlink.com 1.10,2013-02-12 21:50:00,
2013-02-12 14:05:00,67.5,22.0,30.53,NW,320,4.0,-999.0,18,-99.99,,,0.00,543,weatherlink.com 1.10,2013-02-12 22:05:00,
2013-02-12 14:20:00,68.2,20.0,30.53,NW,318,0.0,-999.0,16,-99.99,,,0.00,512,weatherlink.com 1.10,2013-02-12 22:20:00,
2013-02-12 14:50:00,68.5,20.0,30.52,NW,317,0.0,-999.0,16,-99.99,,,0.00,432,weatherlink.com 1.10,2013-02-12 22:50:00,
2013-02-12 15:05:00,69.0,21.0,30.51,NW,317,0.0,-999.0,16,-99.99,,,0.00,394,weatherlink.com 1.10,2013-02-12 23:05:00,
2013-02-12 15:20:00,69.2,21.0,30.51,NW,317,0.0,-999.0,16,-99.99,,,0.00,348,weatherlink.com 1.10,2013-02-12 23:20:00,
2013-02-12 15:35:00,69.2,21.0,30.51,NW,316,0.0,-999.0,16,-99.99,,,0.00,302,weatherlink.com 1.10,2013-02-12 23:35:00,
2013-02-12 15:50:00,69.5,21.0,30.51,NW,316,0.0,-999.0,16,-99.99,,,0.00,255,weatherlink.com 1.10,2013-02-12 23:50:00,
2013-02-12 16:05:00,68.8,21.0,30.51,NW,316,0.0,-999.0,16,-99.99,,,0.00,204,weatherlink.com 1.10,2013-02-13 00:05:00,
2013-02-12 16:21:00,68.5,20.0,30.51,NW,316,0.0,-999.0,16,-99.99,,,0.00,146,weatherlink.com 1.10,2013-02-13 00:21:00,
2013-02-12 16:36:00,68.7,21.0,30.51,NW,316,0.0,-999.0,16,-99.99,,,0.00,90,weatherlink.com 1.10,2013-02-13 00:36:00,
2013-02-12 16:51:00,68.2,22.0,30.51,NW,316,0.0,-999.0,17,-99.99,,,0.00,47,weatherlink.com 1.10,2013-02-13 00:51:00,
2013-02-12 17:06:00,67.8,23.0,30.51,NW,316,0.0,-999.0,18,-99.99,,,0.00,18,weatherlink.com 1.10,2013-02-13 01:06:00,
2013-02-12 17:21:00,65.9,26.0,30.51,WNW,298,0.0,-999.0,22,-99.99,,,0.00,12,weatherlink.com 1.10,2013-02-13 01:21:00,
2013-02-12 17:36:00,63.5,25.0,30.51,WNW,298,0.0,-999.0,23,-99.99,,,0.00,0,weatherlink.com 1.10,2013-02-13 01:36:00,
2013-02-12 17:51:00,61.2,27.0,30.52,WNW,298,0.0,-999.0,27,-99.99,,,0.00,0,weatherlink.com 1.10,2013-02-13 01:51:00,
2013-02-12 18:06:00,59.0,27.0,30.53,WNW,287,1.0,-999.0,29,-99.99,,,0.00,0,weatherlink.com 1.10,2013-02-13 02:06:00,
2013-02-12 18:21:00,58.3,28.0,30.53,WNW,286,0.0,-999.0,31,-99.99,,,0.00,0,weatherlink.com 1.10,2013-02-13 02:21:00,
2013-02-12 18:36:00,57.6,29.0,30.53,WNW,283,0.0,-999.0,33,-99.99,,,0.00,0,weatherlink.com 1.10,2013-02-13 02:36:00,
2013-02-12 18:51:00,57.0,29.0,30.54,WNW,283,0.0,-999.0,34,-99.99,,,0.00,0,weatherlink.com 1.10,2013-02-13 02:51:00,
2013-02-12 19:06:00,55.8,30.0,30.54,WNW,283,0.0,-999.0,37,-99.99,,,0.00,0,weatherlink.com 1.10,2013-02-13 03:06:00,
2013-02-12 19:21:00,54.8,31.0,30.54,WNW,283,0.0,-999.0,40,-99.99,,,0.00,0,weatherlink.com 1.10,2013-02-13 03:21:00,
2013-02-12 19:51:00,53.2,31.0,30.55,WNW,283,0.0,-999.0,43,-99.99,,,0.00,0,weatherlink.com 1.10,2013-02-13 03:51:00,
2013-02-12 20:06:00,52.4,31.0,30.56,WNW,283,0.0,-999.0,45,-99.99,,,0.00,0,weatherlink.com 1.10,2013-02-13 04:06:00,
2013-02-12 20:21:00,51.8,30.0,30.56,WNW,283,0.0,-999.0,44,-99.99,,,0.00,0,weatherlink.com 1.10,2013-02-13 04:21:00,
2013-02-12 20:36:00,51.5,31.0,30.56,WNW,283,0.0,-999.0,46,-99.99,,,0.00,0,weatherlink.com 1.10,2013-02-13 04:36:00,
2013-02-12 20:51:00,50.5,32.0,30.57,WNW,283,0.0,-999.0,50,-99.99,,,0.00,0,weatherlink.com 1.10,2013-02-13 04:51:00,
2013-02-12 21:06:00,49.3,32.0,30.57,WNW,283,0.0,-999.0,51,-99.99,,,0.00,0,weatherlink.com 1.10,2013-02-13 05:06:00,
2013-02-12 21:21:00,48.4,32.0,30.57,WNW,283,0.0,-999.0,53,-99.99,,,0.00,0,weatherlink.com 1.10,2013-02-13 05:21:00,
2013-02-12 21:36:00,47.7,31.0,30.58,WNW,283,0.0,-999.0,53,-99.99,,,0.00,0,weatherlink.com 1.10,2013-02-13 05:36:00,
2013-02-12 21:51:00,47.3,32.0,30.57,WNW,283,0.0,-999.0,55,-99.99,,,0.00,0,weatherlink.com 1.10,2013-02-13 05:51:00,
2013-02-12 22:06:00,46.5,32.0,30.57,WNW,283,0.0,-999.0,57,-99.99,,,0.00,0,weatherlink.com 1.10,2013-02-13 06:06:00,
2013-02-12 22:21:00,45.9,32.0,30.57,WNW,283,0.0,-999.0,58,-99.99,,,0.00,0,weatherlink.com 1.10,2013-02-13 06:21:00,
2013-02-12 22:36:00,45.8,31.0,30.57,WNW,283,0.0,-999.0,57,-99.99,,,0.00,0,weatherlink.com 1.10,2013-02-13 06:36:00,
2013-02-12 22:51:00,45.2,32.0,30.57,WNW,283,0.0,-999.0,60,-99.99,,,0.00,0,weatherlink.com 1.10,2013-02-13 06:51:00,
2013-02-12 23:06:00,45.5,31.0,30.57,WNW,283,0.0,-999.0,57,-99.99,,,0.00,0,weatherlink.com 1.10,2013-02-13 07:06:00,
2013-02-12 23:21:00,45.7,31.0,30.57,WNW,283,0.0,-999.0,57,-99.99,,,0.00,0,weatherlink.com 1.10,2013-02-13 07:21:00,
2013-02-12 23:36:00,45.2,31.0,30.57,WNW,283,0.0,-999.0,57,-99.99,,,0.00,0,weatherlink.com 1.10,2013-02-13 07:36:00,
2013-02-12 23:51:00,45.4,29.0,30.57,WNW,283,0.0,-999.0,54,-99.99,,,0.00,0,weatherlink.com 1.10,2013-02-13 07:51:00,